sensor_id;sensor_type;location;lat;lon;timestamp;P1;durP1;ratioP1;P2;durP2;ratioP2
505;SDS011;551;48.524;9.056;2022-10-15T00:00:31;2.43;;;2.20;;
505;SDS011;551;48.524;9.056;2022-10-15T00:02:57;2.90;;;2.70;;
505;SDS011;551;48.524;9.056;2022-10-15T00:05:23;4.20;;;3.30;;
505;SDS011;551;48.524;9.056;2022-10-15T00:07:48;4.73;;;2.97;;
505;SDS011;551;48.524;9.056;2022-10-15T00:10:15;7.33;;;2.50;;
505;SDS011;551;48.524;9.056;2022-10-15T00:12:41;4.20;;;2.73;;
505;SDS011;551;48.524;9.056;2022-10-15T00:15:06;2.70;;;2.40;;
505;SDS011;551;48.524;9.056;2022-10-15T00:17:33;4.07;;;2.50;;
505;SDS011;551;48.524;9.056;2022-10-15T00:20:00;2.50;;;2.30;;
505;SDS011;551;48.524;9.056;2022-10-15T00:22:30;3.10;;;2.50;;
505;SDS011;551;48.524;9.056;2022-10-15T00:24:55;3.80;;;2.67;;
505;SDS011;551;48.524;9.056;2022-10-15T00:27:21;2.20;;;2.00;;
505;SDS011;551;48.524;9.056;2022-10-15T00:29:47;2.70;;;2.43;;
505;SDS011;551;48.524;9.056;2022-10-15T00:32:12;4.33;;;2.50;;
505;SDS011;551;48.524;9.056;2022-10-15T00:34:38;3.23;;;2.30;;
505;SDS011;551;48.524;9.056;2022-10-15T00:37:04;5.47;;;2.40;;
505;SDS011;551;48.524;9.056;2022-10-15T00:39:29;4.70;;;2.43;;
505;SDS011;551;48.524;9.056;2022-10-15T00:41:55;2.50;;;2.23;;
505;SDS011;551;48.524;9.056;2022-10-15T00:47:00;1.93;;;1.83;;
505;SDS011;551;48.524;9.056;2022-10-15T00:57:37;3.00;;;2.50;;
505;SDS011;551;48.524;9.056;2022-10-15T01:00:06;2.63;;;2.17;;
505;SDS011;551;48.524;9.056;2022-10-15T01:02:34;5.20;;;2.30;;
505;SDS011;551;48.524;9.056;2022-10-15T01:05:00;2.57;;;2.00;;
505;SDS011;551;48.524;9.056;2022-10-15T01:07:25;2.93;;;2.00;;
505;SDS011;551;48.524;9.056;2022-10-15T01:09:51;2.77;;;1.57;;
505;SDS011;551;48.524;9.056;2022-10-15T01:12:27;2.10;;;1.73;;
505;SDS011;551;48.524;9.056;2022-10-15T01:15:02;4.00;;;2.20;;
505;SDS011;551;48.524;9.056;2022-10-15T01:20:43;2.80;;;1.30;;
505;SDS011;551;48.524;9.056;2022-10-15T01:26:16;1.77;;;1.67;;
505;SDS011;551;48.524;9.056;2022-10-15T01:31:56;1.70;;;1.60;;
505;SDS011;551;48.524;9.056;2022-10-15T01:34:59;1.37;;;1.20;;
505;SDS011;551;48.524;9.056;2022-10-15T01:37:37;3.83;;;1.43;;
505;SDS011;551;48.524;9.056;2022-10-15T01:43:11;2.50;;;1.40;;
505;SDS011;551;48.524;9.056;2022-10-15T01:45:40;2.03;;;1.53;;
505;SDS011;551;48.524;9.056;2022-10-15T01:48:29;3.63;;;1.50;;
505;SDS011;551;48.524;9.056;2022-10-15T01:50:59;1.00;;;1.00;;
505;SDS011;551;48.524;9.056;2022-10-15T01:53:27;1.53;;;1.43;;
505;SDS011;551;48.524;9.056;2022-10-15T01:56:01;1.93;;;1.00;;
505;SDS011;551;48.524;9.056;2022-10-15T01:58:30;2.70;;;0.90;;
505;SDS011;551;48.524;9.056;2022-10-15T02:00:57;2.30;;;0.90;;
505;SDS011;551;48.524;9.056;2022-10-15T02:03:23;1.10;;;1.00;;
505;SDS011;551;48.524;9.056;2022-10-15T02:05:51;1.00;;;0.90;;
505;SDS011;551;48.524;9.056;2022-10-15T02:08:30;0.93;;;0.93;;
505;SDS011;551;48.524;9.056;2022-10-15T02:11:04;1.47;;;0.70;;
505;SDS011;551;48.524;9.056;2022-10-15T02:26:22;0.87;;;0.87;;
505;SDS011;551;48.524;9.056;2022-10-15T02:28:51;0.70;;;0.70;;
505;SDS011;551;48.524;9.056;2022-10-15T02:31:19;0.70;;;0.70;;
505;SDS011;551;48.524;9.056;2022-10-15T02:33:47;1.53;;;0.80;;
505;SDS011;551;48.524;9.056;2022-10-15T02:36:16;0.90;;;0.70;;
505;SDS011;551;48.524;9.056;2022-10-15T02:38:43;0.80;;;0.80;;
505;SDS011;551;48.524;9.056;2022-10-15T02:41:09;2.67;;;0.80;;
505;SDS011;551;48.524;9.056;2022-10-15T02:43:36;1.37;;;0.80;;
505;SDS011;551;48.524;9.056;2022-10-15T02:46:03;0.70;;;0.70;;
505;SDS011;551;48.524;9.056;2022-10-15T02:48:29;0.70;;;0.70;;
505;SDS011;551;48.524;9.056;2022-10-15T02:50:55;1.57;;;0.80;;
505;SDS011;551;48.524;9.056;2022-10-15T02:53:20;0.80;;;0.80;;
505;SDS011;551;48.524;9.056;2022-10-15T02:55:46;1.77;;;0.80;;
505;SDS011;551;48.524;9.056;2022-10-15T02:58:11;1.63;;;1.00;;
505;SDS011;551;48.524;9.056;2022-10-15T03:00:37;1.00;;;0.90;;
505;SDS011;551;48.524;9.056;2022-10-15T03:03:03;0.80;;;0.80;;
505;SDS011;551;48.524;9.056;2022-10-15T03:05:28;2.70;;;0.80;;
505;SDS011;551;48.524;9.056;2022-10-15T03:07:54;0.70;;;0.70;;
505;SDS011;551;48.524;9.056;2022-10-15T03:10:20;0.80;;;0.80;;
505;SDS011;551;48.524;9.056;2022-10-15T03:12:45;0.83;;;0.83;;
505;SDS011;551;48.524;9.056;2022-10-15T03:15:11;1.50;;;0.87;;
505;SDS011;551;48.524;9.056;2022-10-15T03:17:37;0.80;;;0.80;;
505;SDS011;551;48.524;9.056;2022-10-15T03:20:03;1.63;;;1.10;;
505;SDS011;551;48.524;9.056;2022-10-15T03:22:29;3.13;;;0.93;;
505;SDS011;551;48.524;9.056;2022-10-15T03:24:54;0.90;;;0.80;;
505;SDS011;551;48.524;9.056;2022-10-15T03:27:20;1.37;;;0.90;;
505;SDS011;551;48.524;9.056;2022-10-15T03:29:45;0.90;;;0.90;;
505;SDS011;551;48.524;9.056;2022-10-15T03:32:11;0.80;;;0.80;;
505;SDS011;551;48.524;9.056;2022-10-15T03:34:36;2.23;;;0.83;;
505;SDS011;551;48.524;9.056;2022-10-15T03:37:02;0.80;;;0.80;;
505;SDS011;551;48.524;9.056;2022-10-15T03:39:27;1.47;;;0.87;;
505;SDS011;551;48.524;9.056;2022-10-15T03:41:53;0.73;;;0.73;;
505;SDS011;551;48.524;9.056;2022-10-15T03:44:18;1.17;;;0.90;;
505;SDS011;551;48.524;9.056;2022-10-15T03:46:44;0.70;;;0.70;;
505;SDS011;551;48.524;9.056;2022-10-15T03:49:09;1.10;;;1.00;;
505;SDS011;551;48.524;9.056;2022-10-15T03:51:35;2.80;;;0.93;;
505;SDS011;551;48.524;9.056;2022-10-15T03:54:01;2.30;;;0.90;;
505;SDS011;551;48.524;9.056;2022-10-15T03:56:27;1.47;;;0.97;;
505;SDS011;551;48.524;9.056;2022-10-15T03:58:53;0.90;;;0.90;;
505;SDS011;551;48.524;9.056;2022-10-15T04:01:19;3.20;;;1.00;;
505;SDS011;551;48.524;9.056;2022-10-15T04:03:45;0.80;;;0.80;;
505;SDS011;551;48.524;9.056;2022-10-15T04:06:11;1.00;;;1.00;;
505;SDS011;551;48.524;9.056;2022-10-15T04:08:36;0.80;;;0.80;;
505;SDS011;551;48.524;9.056;2022-10-15T04:11:02;2.60;;;0.80;;
505;SDS011;551;48.524;9.056;2022-10-15T04:13:28;2.77;;;1.10;;
505;SDS011;551;48.524;9.056;2022-10-15T04:15:53;0.90;;;0.90;;
505;SDS011;551;48.524;9.056;2022-10-15T04:18:19;1.50;;;1.00;;
505;SDS011;551;48.524;9.056;2022-10-15T04:20:46;0.97;;;0.90;;
505;SDS011;551;48.524;9.056;2022-10-15T04:23:12;1.10;;;0.97;;
505;SDS011;551;48.524;9.056;2022-10-15T04:25:39;0.77;;;0.77;;
505;SDS011;551;48.524;9.056;2022-10-15T04:28:04;2.80;;;0.90;;
505;SDS011;551;48.524;9.056;2022-10-15T04:30:30;1.30;;;0.90;;
505;SDS011;551;48.524;9.056;2022-10-15T04:32:55;1.40;;;1.30;;
505;SDS011;551;48.524;9.056;2022-10-15T04:35:21;0.97;;;0.97;;
505;SDS011;551;48.524;9.056;2022-10-15T04:37:47;1.40;;;1.20;;
505;SDS011;551;48.524;9.056;2022-10-15T04:40:12;0.83;;;0.83;;
505;SDS011;551;48.524;9.056;2022-10-15T04:42:38;0.80;;;0.80;;
505;SDS011;551;48.524;9.056;2022-10-15T04:45:04;0.90;;;0.90;;
505;SDS011;551;48.524;9.056;2022-10-15T04:47:31;1.57;;;0.90;;
505;SDS011;551;48.524;9.056;2022-10-15T04:49:56;1.30;;;1.20;;
505;SDS011;551;48.524;9.056;2022-10-15T04:52:22;1.40;;;1.30;;
505;SDS011;551;48.524;9.056;2022-10-15T04:54:48;0.80;;;0.80;;
505;SDS011;551;48.524;9.056;2022-10-15T04:57:13;1.70;;;1.00;;
505;SDS011;551;48.524;9.056;2022-10-15T04:59:39;0.77;;;0.77;;
505;SDS011;551;48.524;9.056;2022-10-15T05:02:06;1.17;;;1.07;;
505;SDS011;551;48.524;9.056;2022-10-15T05:04:31;1.00;;;0.90;;
505;SDS011;551;48.524;9.056;2022-10-15T05:06:57;0.80;;;0.80;;
505;SDS011;551;48.524;9.056;2022-10-15T05:09:23;1.10;;;1.00;;
505;SDS011;551;48.524;9.056;2022-10-15T05:11:48;1.00;;;0.90;;
505;SDS011;551;48.524;9.056;2022-10-15T05:14:14;1.00;;;1.00;;
505;SDS011;551;48.524;9.056;2022-10-15T05:16:40;1.37;;;1.00;;
505;SDS011;551;48.524;9.056;2022-10-15T05:19:06;0.93;;;0.90;;
505;SDS011;551;48.524;9.056;2022-10-15T05:21:33;1.13;;;1.13;;
505;SDS011;551;48.524;9.056;2022-10-15T05:23:59;1.00;;;1.00;;
505;SDS011;551;48.524;9.056;2022-10-15T05:26:26;0.97;;;0.97;;
505;SDS011;551;48.524;9.056;2022-10-15T05:28:54;0.90;;;0.90;;
505;SDS011;551;48.524;9.056;2022-10-15T05:31:20;3.07;;;0.90;;
505;SDS011;551;48.524;9.056;2022-10-15T05:33:48;1.00;;;1.00;;
505;SDS011;551;48.524;9.056;2022-10-15T05:36:16;1.37;;;1.27;;
505;SDS011;551;48.524;9.056;2022-10-15T05:38:44;1.10;;;1.00;;
505;SDS011;551;48.524;9.056;2022-10-15T05:41:10;2.20;;;1.10;;
505;SDS011;551;48.524;9.056;2022-10-15T05:43:36;3.60;;;1.20;;
505;SDS011;551;48.524;9.056;2022-10-15T05:46:02;1.90;;;1.10;;
505;SDS011;551;48.524;9.056;2022-10-15T05:48:28;1.00;;;1.00;;
505;SDS011;551;48.524;9.056;2022-10-15T05:50:58;1.80;;;1.10;;
505;SDS011;551;48.524;9.056;2022-10-15T05:53:25;1.07;;;1.07;;
505;SDS011;551;48.524;9.056;2022-10-15T05:55:51;1.93;;;1.10;;
505;SDS011;551;48.524;9.056;2022-10-15T05:58:17;1.00;;;1.00;;
505;SDS011;551;48.524;9.056;2022-10-15T06:00:43;1.47;;;1.10;;
505;SDS011;551;48.524;9.056;2022-10-15T06:03:12;3.37;;;1.20;;
505;SDS011;551;48.524;9.056;2022-10-15T06:05:38;2.23;;;1.17;;
505;SDS011;551;48.524;9.056;2022-10-15T06:08:04;2.10;;;1.30;;
505;SDS011;551;48.524;9.056;2022-10-15T06:10:36;2.50;;;1.10;;
505;SDS011;551;48.524;9.056;2022-10-15T06:13:02;1.20;;;1.10;;
505;SDS011;551;48.524;9.056;2022-10-15T06:15:29;0.90;;;0.90;;
505;SDS011;551;48.524;9.056;2022-10-15T06:17:55;1.47;;;1.10;;
505;SDS011;551;48.524;9.056;2022-10-15T06:20:20;3.33;;;0.90;;
505;SDS011;551;48.524;9.056;2022-10-15T06:22:46;2.60;;;1.00;;
505;SDS011;551;48.524;9.056;2022-10-15T06:25:11;1.57;;;1.47;;
505;SDS011;551;48.524;9.056;2022-10-15T06:27:37;1.83;;;1.00;;
505;SDS011;551;48.524;9.056;2022-10-15T06:30:03;2.50;;;1.00;;
505;SDS011;551;48.524;9.056;2022-10-15T06:32:29;1.40;;;1.30;;
505;SDS011;551;48.524;9.056;2022-10-15T06:34:54;1.50;;;1.17;;
505;SDS011;551;48.524;9.056;2022-10-15T06:37:20;1.80;;;1.30;;
505;SDS011;551;48.524;9.056;2022-10-15T06:39:46;1.20;;;1.10;;
505;SDS011;551;48.524;9.056;2022-10-15T06:42:11;1.10;;;1.00;;
505;SDS011;551;48.524;9.056;2022-10-15T06:44:40;1.30;;;1.00;;
505;SDS011;551;48.524;9.056;2022-10-15T06:47:05;0.90;;;0.90;;
505;SDS011;551;48.524;9.056;2022-10-15T06:49:31;1.57;;;0.90;;
505;SDS011;551;48.524;9.056;2022-10-15T06:51:57;1.00;;;1.00;;
505;SDS011;551;48.524;9.056;2022-10-15T06:54:23;0.90;;;0.90;;
505;SDS011;551;48.524;9.056;2022-10-15T06:56:49;1.17;;;1.00;;
505;SDS011;551;48.524;9.056;2022-10-15T06:59:15;1.10;;;0.97;;
505;SDS011;551;48.524;9.056;2022-10-15T07:01:41;2.37;;;1.27;;
505;SDS011;551;48.524;9.056;2022-10-15T07:04:06;0.97;;;0.97;;
505;SDS011;551;48.524;9.056;2022-10-15T07:06:33;1.53;;;1.00;;
505;SDS011;551;48.524;9.056;2022-10-15T07:09:02;0.93;;;0.93;;
505;SDS011;551;48.524;9.056;2022-10-15T07:11:29;4.10;;;1.00;;
505;SDS011;551;48.524;9.056;2022-10-15T07:13:55;1.33;;;1.00;;
505;SDS011;551;48.524;9.056;2022-10-15T07:16:22;1.40;;;1.30;;
505;SDS011;551;48.524;9.056;2022-10-15T07:18:47;0.90;;;0.90;;
505;SDS011;551;48.524;9.056;2022-10-15T07:21:13;1.60;;;0.93;;
505;SDS011;551;48.524;9.056;2022-10-15T07:23:38;1.63;;;1.13;;
505;SDS011;551;48.524;9.056;2022-10-15T07:26:04;1.20;;;1.10;;
505;SDS011;551;48.524;9.056;2022-10-15T07:28:29;1.53;;;1.10;;
505;SDS011;551;48.524;9.056;2022-10-15T07:30:59;1.13;;;1.03;;
505;SDS011;551;48.524;9.056;2022-10-15T07:33:25;1.00;;;1.00;;
505;SDS011;551;48.524;9.056;2022-10-15T07:35:51;2.03;;;1.20;;
505;SDS011;551;48.524;9.056;2022-10-15T07:38:16;2.17;;;1.00;;
505;SDS011;551;48.524;9.056;2022-10-15T07:40:42;1.70;;;1.13;;
505;SDS011;551;48.524;9.056;2022-10-15T07:43:07;2.70;;;1.10;;
505;SDS011;551;48.524;9.056;2022-10-15T07:45:33;1.23;;;1.13;;
505;SDS011;551;48.524;9.056;2022-10-15T07:47:59;2.47;;;1.23;;
505;SDS011;551;48.524;9.056;2022-10-15T07:50:25;2.33;;;1.60;;
505;SDS011;551;48.524;9.056;2022-10-15T07:52:51;1.80;;;1.70;;
505;SDS011;551;48.524;9.056;2022-10-15T07:55:16;6.70;;;2.13;;
505;SDS011;551;48.524;9.056;2022-10-15T07:57:42;2.03;;;1.90;;
505;SDS011;551;48.524;9.056;2022-10-15T08:00:08;2.80;;;2.10;;
505;SDS011;551;48.524;9.056;2022-10-15T08:02:34;2.53;;;1.70;;
505;SDS011;551;48.524;9.056;2022-10-15T08:04:59;1.40;;;1.30;;
505;SDS011;551;48.524;9.056;2022-10-15T08:07:25;1.40;;;1.30;;
505;SDS011;551;48.524;9.056;2022-10-15T08:09:50;6.17;;;1.50;;
505;SDS011;551;48.524;9.056;2022-10-15T08:12:16;1.50;;;1.40;;
505;SDS011;551;48.524;9.056;2022-10-15T08:14:41;5.40;;;1.47;;
505;SDS011;551;48.524;9.056;2022-10-15T08:17:07;2.80;;;1.77;;
505;SDS011;551;48.524;9.056;2022-10-15T08:19:32;1.53;;;1.43;;
505;SDS011;551;48.524;9.056;2022-10-15T08:21:58;4.27;;;1.70;;
505;SDS011;551;48.524;9.056;2022-10-15T08:24:24;2.00;;;1.80;;
505;SDS011;551;48.524;9.056;2022-10-15T08:26:49;1.70;;;1.60;;
505;SDS011;551;48.524;9.056;2022-10-15T08:29:15;1.10;;;1.10;;
505;SDS011;551;48.524;9.056;2022-10-15T08:31:40;1.53;;;1.43;;
505;SDS011;551;48.524;9.056;2022-10-15T08:34:06;1.10;;;1.00;;
505;SDS011;551;48.524;9.056;2022-10-15T08:36:32;0.93;;;0.90;;
505;SDS011;551;48.524;9.056;2022-10-15T08:38:57;1.87;;;1.33;;
505;SDS011;551;48.524;9.056;2022-10-15T08:41:25;1.47;;;1.17;;
505;SDS011;551;48.524;9.056;2022-10-15T08:43:56;1.00;;;1.00;;
505;SDS011;551;48.524;9.056;2022-10-15T08:46:40;1.17;;;1.00;;
505;SDS011;551;48.524;9.056;2022-10-15T08:49:13;2.73;;;1.10;;
505;SDS011;551;48.524;9.056;2022-10-15T08:51:50;1.87;;;1.30;;
505;SDS011;551;48.524;9.056;2022-10-15T08:54:21;3.23;;;1.10;;
505;SDS011;551;48.524;9.056;2022-10-15T08:56:47;1.23;;;1.20;;
505;SDS011;551;48.524;9.056;2022-10-15T08:59:29;1.23;;;0.90;;
505;SDS011;551;48.524;9.056;2022-10-15T09:02:13;1.77;;;1.67;;
505;SDS011;551;48.524;9.056;2022-10-15T09:04:50;0.90;;;0.90;;
505;SDS011;551;48.524;9.056;2022-10-15T09:07:41;4.80;;;1.30;;
505;SDS011;551;48.524;9.056;2022-10-15T09:10:15;1.73;;;1.20;;
505;SDS011;551;48.524;9.056;2022-10-15T09:12:54;1.57;;;0.90;;
505;SDS011;551;48.524;9.056;2022-10-15T09:15:33;1.83;;;1.10;;
505;SDS011;551;48.524;9.056;2022-10-15T09:18:07;1.10;;;1.03;;
505;SDS011;551;48.524;9.056;2022-10-15T09:20:45;1.37;;;1.17;;
505;SDS011;551;48.524;9.056;2022-10-15T09:23:22;1.30;;;1.23;;
505;SDS011;551;48.524;9.056;2022-10-15T09:25:59;0.90;;;0.90;;
505;SDS011;551;48.524;9.056;2022-10-15T09:28:35;2.07;;;1.10;;
505;SDS011;551;48.524;9.056;2022-10-15T09:31:07;1.37;;;1.27;;
505;SDS011;551;48.524;9.056;2022-10-15T09:33:38;1.53;;;1.43;;
505;SDS011;551;48.524;9.056;2022-10-15T09:36:15;1.30;;;1.20;;
505;SDS011;551;48.524;9.056;2022-10-15T09:42:12;4.23;;;1.30;;
505;SDS011;551;48.524;9.056;2022-10-15T09:44:40;1.47;;;1.37;;
505;SDS011;551;48.524;9.056;2022-10-15T09:47:42;3.00;;;1.40;;
505;SDS011;551;48.524;9.056;2022-10-15T09:50:01;2.93;;;1.00;;
505;SDS011;551;48.524;9.056;2022-10-15T09:55:41;1.30;;;1.20;;
505;SDS011;551;48.524;9.056;2022-10-15T09:58:32;2.03;;;1.40;;
505;SDS011;551;48.524;9.056;2022-10-15T10:01:04;1.00;;;1.00;;
505;SDS011;551;48.524;9.056;2022-10-15T10:03:32;3.10;;;1.60;;
505;SDS011;551;48.524;9.056;2022-10-15T10:06:06;1.20;;;1.10;;
505;SDS011;551;48.524;9.056;2022-10-15T10:11:22;3.10;;;1.23;;
505;SDS011;551;48.524;9.056;2022-10-15T10:13:58;1.40;;;1.30;;
505;SDS011;551;48.524;9.056;2022-10-15T10:16:25;1.33;;;1.13;;
505;SDS011;551;48.524;9.056;2022-10-15T10:19:02;2.40;;;1.50;;
505;SDS011;551;48.524;9.056;2022-10-15T10:21:36;2.13;;;1.20;;
505;SDS011;551;48.524;9.056;2022-10-15T10:26:58;1.30;;;1.20;;
505;SDS011;551;48.524;9.056;2022-10-15T10:29:25;2.43;;;1.30;;
505;SDS011;551;48.524;9.056;2022-10-15T10:31:52;2.90;;;1.13;;
505;SDS011;551;48.524;9.056;2022-10-15T10:34:25;2.40;;;1.60;;
505;SDS011;551;48.524;9.056;2022-10-15T10:36:54;2.60;;;1.47;;
505;SDS011;551;48.524;9.056;2022-10-15T10:39:27;4.33;;;1.63;;
505;SDS011;551;48.524;9.056;2022-10-15T10:41:58;1.30;;;1.20;;
505;SDS011;551;48.524;9.056;2022-10-15T10:44:26;1.30;;;1.20;;
505;SDS011;551;48.524;9.056;2022-10-15T10:47:00;2.50;;;1.47;;
505;SDS011;551;48.524;9.056;2022-10-15T10:49:32;5.13;;;1.30;;
505;SDS011;551;48.524;9.056;2022-10-15T10:51:59;5.40;;;1.40;;
505;SDS011;551;48.524;9.056;2022-10-15T10:54:25;1.57;;;1.30;;
505;SDS011;551;48.524;9.056;2022-10-15T10:56:52;2.80;;;1.17;;
505;SDS011;551;48.524;9.056;2022-10-15T10:59:20;5.80;;;1.50;;
505;SDS011;551;48.524;9.056;2022-10-15T11:01:51;4.27;;;1.30;;
505;SDS011;551;48.524;9.056;2022-10-15T11:07:12;2.00;;;1.23;;
505;SDS011;551;48.524;9.056;2022-10-15T11:23:08;4.57;;;1.17;;
505;SDS011;551;48.524;9.056;2022-10-15T11:25:52;2.90;;;2.10;;
505;SDS011;551;48.524;9.056;2022-10-15T11:42:26;1.97;;;1.40;;
505;SDS011;551;48.524;9.056;2022-10-15T11:55:56;1.57;;;1.20;;
505;SDS011;551;48.524;9.056;2022-10-15T11:58:37;1.97;;;1.10;;
505;SDS011;551;48.524;9.056;2022-10-15T12:01:09;10.03;;;1.53;;
505;SDS011;551;48.524;9.056;2022-10-15T12:03:49;2.10;;;1.50;;
505;SDS011;551;48.524;9.056;2022-10-15T12:06:18;2.47;;;1.33;;
505;SDS011;551;48.524;9.056;2022-10-15T12:08:48;2.30;;;1.80;;
505;SDS011;551;48.524;9.056;2022-10-15T12:16:34;1.90;;;1.80;;
505;SDS011;551;48.524;9.056;2022-10-15T12:19:20;1.93;;;1.30;;
505;SDS011;551;48.524;9.056;2022-10-15T12:29:43;1.40;;;1.10;;
505;SDS011;551;48.524;9.056;2022-10-15T12:32:25;1.40;;;1.30;;
505;SDS011;551;48.524;9.056;2022-10-15T12:35:38;1.53;;;1.40;;
505;SDS011;551;48.524;9.056;2022-10-15T12:37:38;1.43;;;1.33;;
505;SDS011;551;48.524;9.056;2022-10-15T12:40:06;1.40;;;1.30;;
505;SDS011;551;48.524;9.056;2022-10-15T12:42:51;2.00;;;1.40;;
505;SDS011;551;48.524;9.056;2022-10-15T12:46:08;1.33;;;1.23;;
505;SDS011;551;48.524;9.056;2022-10-15T12:50:39;1.60;;;1.50;;
505;SDS011;551;48.524;9.056;2022-10-15T12:58:54;1.43;;;1.20;;
505;SDS011;551;48.524;9.056;2022-10-15T13:09:04;1.20;;;1.10;;
505;SDS011;551;48.524;9.056;2022-10-15T13:11:34;2.00;;;1.20;;
505;SDS011;551;48.524;9.056;2022-10-15T13:14:07;1.50;;;1.20;;
505;SDS011;551;48.524;9.056;2022-10-15T13:16:43;1.63;;;1.20;;
505;SDS011;551;48.524;9.056;2022-10-15T13:19:20;1.03;;;1.03;;
505;SDS011;551;48.524;9.056;2022-10-15T13:24:19;1.67;;;1.10;;
505;SDS011;551;48.524;9.056;2022-10-15T13:26:46;1.67;;;1.20;;
505;SDS011;551;48.524;9.056;2022-10-15T13:29:14;1.30;;;1.20;;
505;SDS011;551;48.524;9.056;2022-10-15T13:31:41;2.60;;;1.07;;
505;SDS011;551;48.524;9.056;2022-10-15T13:36:55;2.37;;;1.20;;
505;SDS011;551;48.524;9.056;2022-10-15T13:39:27;1.17;;;1.17;;
505;SDS011;551;48.524;9.056;2022-10-15T13:44:39;1.47;;;1.13;;
505;SDS011;551;48.524;9.056;2022-10-15T13:47:22;3.70;;;1.50;;
505;SDS011;551;48.524;9.056;2022-10-15T13:55:25;1.83;;;1.50;;
505;SDS011;551;48.524;9.056;2022-10-15T13:57:58;3.80;;;1.13;;
505;SDS011;551;48.524;9.056;2022-10-15T14:00:30;1.30;;;1.20;;
505;SDS011;551;48.524;9.056;2022-10-15T14:03:05;3.70;;;1.00;;
505;SDS011;551;48.524;9.056;2022-10-15T14:05:32;1.50;;;1.40;;
505;SDS011;551;48.524;9.056;2022-10-15T14:07:57;2.47;;;1.40;;
505;SDS011;551;48.524;9.056;2022-10-15T14:10:23;1.80;;;1.70;;
505;SDS011;551;48.524;9.056;2022-10-15T14:12:48;6.40;;;2.10;;
505;SDS011;551;48.524;9.056;2022-10-15T14:18:08;4.03;;;1.20;;
505;SDS011;551;48.524;9.056;2022-10-15T14:20:36;1.43;;;1.33;;
505;SDS011;551;48.524;9.056;2022-10-15T14:23:01;2.20;;;2.00;;
505;SDS011;551;48.524;9.056;2022-10-15T14:25:27;1.30;;;1.20;;
505;SDS011;551;48.524;9.056;2022-10-15T14:27:52;2.67;;;1.30;;
505;SDS011;551;48.524;9.056;2022-10-15T14:30:24;3.03;;;1.30;;
505;SDS011;551;48.524;9.056;2022-10-15T14:32:53;1.93;;;1.40;;
505;SDS011;551;48.524;9.056;2022-10-15T14:35:23;1.40;;;1.30;;
505;SDS011;551;48.524;9.056;2022-10-15T14:40:29;1.47;;;1.10;;
505;SDS011;551;48.524;9.056;2022-10-15T14:43:05;2.47;;;1.40;;
505;SDS011;551;48.524;9.056;2022-10-15T14:48:18;2.23;;;1.37;;
505;SDS011;551;48.524;9.056;2022-10-15T14:50:47;1.77;;;1.47;;
505;SDS011;551;48.524;9.056;2022-10-15T14:53:17;3.40;;;1.43;;
505;SDS011;551;48.524;9.056;2022-10-15T14:55:47;1.83;;;1.00;;
505;SDS011;551;48.524;9.056;2022-10-15T14:58:24;1.63;;;1.10;;
505;SDS011;551;48.524;9.056;2022-10-15T15:00:56;1.53;;;1.10;;
505;SDS011;551;48.524;9.056;2022-10-15T15:03:28;1.03;;;0.97;;
505;SDS011;551;48.524;9.056;2022-10-15T15:05:56;1.67;;;1.40;;
505;SDS011;551;48.524;9.056;2022-10-15T15:08:23;2.80;;;1.40;;
505;SDS011;551;48.524;9.056;2022-10-15T15:10:49;4.30;;;1.63;;
505;SDS011;551;48.524;9.056;2022-10-15T15:13:23;2.93;;;1.30;;
505;SDS011;551;48.524;9.056;2022-10-15T15:15:51;2.77;;;1.37;;
505;SDS011;551;48.524;9.056;2022-10-15T15:18:17;4.70;;;1.10;;
505;SDS011;551;48.524;9.056;2022-10-15T15:20:43;1.47;;;1.37;;
505;SDS011;551;48.524;9.056;2022-10-15T15:23:13;4.60;;;1.33;;
505;SDS011;551;48.524;9.056;2022-10-15T15:25:45;1.53;;;1.10;;
505;SDS011;551;48.524;9.056;2022-10-15T15:28:12;1.50;;;1.33;;
505;SDS011;551;48.524;9.056;2022-10-15T15:30:46;1.07;;;1.07;;
505;SDS011;551;48.524;9.056;2022-10-15T15:33:19;2.37;;;1.30;;
505;SDS011;551;48.524;9.056;2022-10-15T15:35:49;2.50;;;1.23;;
505;SDS011;551;48.524;9.056;2022-10-15T15:38:17;3.13;;;1.73;;
505;SDS011;551;48.524;9.056;2022-10-15T15:40:44;6.33;;;1.73;;
505;SDS011;551;48.524;9.056;2022-10-15T15:43:14;1.37;;;1.27;;
505;SDS011;551;48.524;9.056;2022-10-15T15:45:41;2.90;;;1.40;;
505;SDS011;551;48.524;9.056;2022-10-15T15:48:07;1.70;;;1.60;;
505;SDS011;551;48.524;9.056;2022-10-15T15:50:35;5.43;;;1.60;;
505;SDS011;551;48.524;9.056;2022-10-15T15:53:01;4.17;;;1.90;;
505;SDS011;551;48.524;9.056;2022-10-15T15:55:27;2.47;;;2.37;;
505;SDS011;551;48.524;9.056;2022-10-15T15:57:53;1.73;;;1.63;;
505;SDS011;551;48.524;9.056;2022-10-15T16:00:18;6.80;;;1.93;;
505;SDS011;551;48.524;9.056;2022-10-15T16:02:44;1.60;;;1.50;;
505;SDS011;551;48.524;9.056;2022-10-15T16:05:15;1.63;;;1.30;;
505;SDS011;551;48.524;9.056;2022-10-15T16:07:41;1.50;;;1.40;;
505;SDS011;551;48.524;9.056;2022-10-15T16:10:07;1.73;;;1.17;;
505;SDS011;551;48.524;9.056;2022-10-15T16:12:36;1.93;;;1.40;;
505;SDS011;551;48.524;9.056;2022-10-15T16:15:04;1.40;;;1.30;;
505;SDS011;551;48.524;9.056;2022-10-15T16:17:31;2.83;;;1.20;;
505;SDS011;551;48.524;9.056;2022-10-15T16:19:56;1.40;;;1.30;;
505;SDS011;551;48.524;9.056;2022-10-15T16:22:22;1.30;;;1.20;;
505;SDS011;551;48.524;9.056;2022-10-15T16:24:48;2.30;;;1.30;;
505;SDS011;551;48.524;9.056;2022-10-15T16:27:13;1.50;;;1.40;;
505;SDS011;551;48.524;9.056;2022-10-15T16:29:38;1.40;;;1.30;;
505;SDS011;551;48.524;9.056;2022-10-15T16:32:04;3.23;;;2.37;;
505;SDS011;551;48.524;9.056;2022-10-15T16:34:30;2.20;;;1.70;;
505;SDS011;551;48.524;9.056;2022-10-15T16:36:55;1.67;;;1.57;;
505;SDS011;551;48.524;9.056;2022-10-15T16:39:21;2.07;;;1.87;;
505;SDS011;551;48.524;9.056;2022-10-15T16:41:47;1.90;;;1.43;;
505;SDS011;551;48.524;9.056;2022-10-15T16:44:12;2.63;;;1.80;;
505;SDS011;551;48.524;9.056;2022-10-15T16:46:38;2.57;;;1.60;;
505;SDS011;551;48.524;9.056;2022-10-15T16:49:04;1.93;;;1.70;;
505;SDS011;551;48.524;9.056;2022-10-15T16:51:29;8.70;;;2.43;;
505;SDS011;551;48.524;9.056;2022-10-15T16:53:56;5.00;;;2.17;;
505;SDS011;551;48.524;9.056;2022-10-15T16:56:23;2.40;;;2.17;;
505;SDS011;551;48.524;9.056;2022-10-15T16:58:51;3.67;;;2.67;;
505;SDS011;551;48.524;9.056;2022-10-15T17:01:23;6.70;;;2.33;;
505;SDS011;551;48.524;9.056;2022-10-15T17:03:50;3.23;;;1.90;;
505;SDS011;551;48.524;9.056;2022-10-15T17:06:19;3.10;;;1.70;;
505;SDS011;551;48.524;9.056;2022-10-15T17:08:50;2.50;;;1.93;;
505;SDS011;551;48.524;9.056;2022-10-15T17:11:19;4.83;;;2.10;;
505;SDS011;551;48.524;9.056;2022-10-15T17:13:46;4.90;;;2.30;;
505;SDS011;551;48.524;9.056;2022-10-15T17:16:15;3.70;;;1.90;;
505;SDS011;551;48.524;9.056;2022-10-15T17:18:46;3.33;;;2.10;;
505;SDS011;551;48.524;9.056;2022-10-15T17:21:14;4.10;;;2.70;;
505;SDS011;551;48.524;9.056;2022-10-15T17:23:42;4.07;;;2.10;;
505;SDS011;551;48.524;9.056;2022-10-15T17:26:12;6.67;;;2.17;;
505;SDS011;551;48.524;9.056;2022-10-15T17:28:40;3.73;;;2.03;;
505;SDS011;551;48.524;9.056;2022-10-15T17:31:09;5.80;;;2.40;;
505;SDS011;551;48.524;9.056;2022-10-15T17:33:36;4.27;;;2.43;;
505;SDS011;551;48.524;9.056;2022-10-15T17:36:03;3.30;;;2.10;;
505;SDS011;551;48.524;9.056;2022-10-15T17:38:30;2.30;;;1.93;;
505;SDS011;551;48.524;9.056;2022-10-15T17:40:57;2.80;;;2.23;;
505;SDS011;551;48.524;9.056;2022-10-15T17:43:23;1.97;;;1.87;;
505;SDS011;551;48.524;9.056;2022-10-15T17:45:49;3.47;;;1.90;;
505;SDS011;551;48.524;9.056;2022-10-15T17:48:21;5.70;;;1.93;;
505;SDS011;551;48.524;9.056;2022-10-15T17:50:47;3.60;;;2.10;;
505;SDS011;551;48.524;9.056;2022-10-15T17:53:12;3.13;;;2.93;;
505;SDS011;551;48.524;9.056;2022-10-15T17:55:39;2.90;;;2.43;;
505;SDS011;551;48.524;9.056;2022-10-15T17:58:05;3.03;;;2.50;;
505;SDS011;551;48.524;9.056;2022-10-15T18:00:31;2.90;;;2.33;;
505;SDS011;551;48.524;9.056;2022-10-15T18:02:57;2.70;;;2.27;;
505;SDS011;551;48.524;9.056;2022-10-15T18:05:22;2.27;;;2.07;;
505;SDS011;551;48.524;9.056;2022-10-15T18:07:48;2.90;;;2.17;;
505;SDS011;551;48.524;9.056;2022-10-15T18:10:13;2.83;;;2.30;;
505;SDS011;551;48.524;9.056;2022-10-15T18:12:39;7.40;;;3.33;;